Time;durP1;ratioP1;P1;durP2;ratioP2;P2;SDS_P1;SDS_P2;PMS_P1;PMS_P2;Temp;Humidity;BMP_temperature;BMP_pressure;BME280_temperature;BME280_humidity;BME280_pressure;Samples;Min_cycle;Max_cycle;Signal;HPM_P1;HPM_P2
2021/01/24 00:00:26;;;;;;;25.38;14.52;;;;;;;-0.12;88.55;98266.91;5056315;28;20086;-73
2021/01/24 00:02:53;;;;;;;24.85;16.27;;;;;;;-0.16;87.90;98257.63;5038568;28;20040;-73
2021/01/24 00:05:20;;;;;;;24.63;15.63;;;;;;;-0.14;88.50;98263.59;5056221;28;20048;-73
2021/01/24 00:07:47;;;;;;;23.15;15.82;;;;;;;-0.19;88.63;98260.69;5056355;28;20050;-74
2021/01/24 00:10:14;;;;;;;22.55;15.27;;;;;;;-0.29;88.41;98257.53;5056188;28;20606;-73
2021/01/24 00:12:40;;;;;;;26.13;16.85;;;;;;;-0.20;88.92;98253.69;5056353;28;20044;-73
2021/01/24 00:15:07;;;;;;;27.73;17.73;;;;;;;-0.29;88.71;98249.50;5072899;28;20138;-73
2021/01/24 00:17:34;;;;;;;29.48;17.85;;;;;;;-0.38;88.53;98245.34;5032641;28;20562;-73
2021/01/24 00:20:01;;;;;;;27.73;17.83;;;;;;;-0.40;89.19;98242.03;5020542;28;20140;-73
2021/01/24 00:22:28;;;;;;;25.88;17.45;;;;;;;-0.39;88.69;98241.00;5039977;28;20093;-73
2021/01/24 00:24:55;;;;;;;26.55;17.83;;;;;;;-0.36;88.66;98235.25;5056482;28;20213;-73
2021/01/24 00:27:22;;;;;;;26.40;16.38;;;;;;;-0.39;89.52;98232.97;5056053;28;20052;-74
2021/01/24 00:29:51;;;;;;;25.73;16.88;;;;;;;-0.42;88.63;98244.91;5055698;28;20560;-73
2021/01/24 00:32:18;;;;;;;28.92;17.13;;;;;;;-0.55;89.47;98249.31;5056021;28;20048;-73
2021/01/24 00:34:44;;;;;;;30.25;17.98;;;;;;;-0.64;90.39;98253.13;5043818;28;20048;-73
2021/01/24 00:37:12;;;;;;;24.58;17.23;;;;;;;-0.63;90.51;98252.13;5036092;28;20061;-74
2021/01/24 00:39:38;;;;;;;27.52;17.70;;;;;;;-0.58;90.35;98247.00;5055342;28;20047;-74
2021/01/24 00:42:05;;;;;;;27.33;17.58;;;;;;;-0.60;89.36;98235.69;5038799;28;20044;-74
2021/01/24 00:44:32;;;;;;;28.05;17.23;;;;;;;-0.49;89.34;98245.88;5040800;28;20513;-73
2021/01/24 00:46:58;;;;;;;26.42;16.27;;;;;;;-0.51;89.09;98248.72;5059432;28;20048;-73
2021/01/24 00:49:25;;;;;;;26.48;17.10;;;;;;;-0.66;89.41;98245.31;5042876;28;20486;-73
2021/01/24 00:51:51;;;;;;;24.75;16.90;;;;;;;-0.79;89.69;98243.38;5050672;28;20037;-72
2021/01/24 00:54:18;;;;;;;29.58;18.27;;;;;;;-0.92;91.22;98240.56;5057458;28;20044;-73
2021/01/24 00:56:45;;;;;;;28.50;18.25;;;;;;;-0.80;90.72;98232.84;5063537;28;20056;-73
2021/01/24 00:59:12;;;;;;;28.02;17.48;;;;;;;-0.79;90.38;98224.66;5054500;28;20517;-73
2021/01/24 01:01:38;;;;;;;29.92;18.50;;;;;;;-0.70;89.99;98234.19;5042098;28;20052;-73
2021/01/24 01:04:05;;;;;;;29.83;19.08;;;;;;;-0.81;89.59;98234.69;5070454;28;20049;-73
2021/01/24 01:06:32;;;;;;;30.75;19.67;;;;;;;-0.95;90.53;98229.41;5037442;28;20054;-73
2021/01/24 01:08:59;;;;;;;31.42;20.05;;;;;;;-0.98;90.79;98230.63;5034052;28;20041;-72
2021/01/24 01:11:25;;;;;;;33.95;21.42;;;;;;;-0.94;90.66;98226.56;5066913;28;20048;-72
2021/01/24 01:13:51;;;;;;;33.42;21.20;;;;;;;-0.90;90.23;98227.81;5049473;28;20109;-72
2021/01/24 01:16:18;;;;;;;33.50;21.05;;;;;;;-0.81;90.05;98233.88;5048028;28;20044;-73
2021/01/24 01:18:44;;;;;;;36.17;21.70;;;;;;;-0.80;89.63;98239.03;5050622;28;20492;-74
2021/01/24 01:21:11;;;;;;;34.17;21.40;;;;;;;-0.85;90.26;98241.44;5054175;28;20056;-73
2021/01/24 01:23:37;;;;;;;34.38;21.35;;;;;;;-1.01;90.25;98247.88;5063899;28;20513;-73
2021/01/24 01:26:04;;;;;;;34.42;21.15;;;;;;;-0.94;90.64;98247.94;5058648;28;20048;-73
2021/01/24 01:28:30;;;;;;;31.60;20.15;;;;;;;-0.89;90.01;98237.50;5042182;28;20123;-72
2021/01/24 01:30:57;;;;;;;34.63;21.52;;;;;;;-1.05;90.05;98241.28;5058345;28;20044;-72
2021/01/24 01:33:23;;;;;;;34.22;21.48;;;;;;;-1.02;90.73;98246.22;5072287;28;20047;-72
2021/01/24 01:35:49;;;;;;;35.17;21.98;;;;;;;-0.94;90.51;98237.25;5058558;28;20086;-71
2021/01/24 01:38:16;;;;;;;36.40;22.30;;;;;;;-0.91;89.97;98228.03;5093001;28;20056;-72
2021/01/24 01:40:42;;;;;;;36.10;22.42;;;;;;;-0.93;90.18;98230.88;5041842;28;20044;-72
2021/01/24 01:43:08;;;;;;;36.03;20.80;;;;;;;-1.02;90.48;98229.34;5058543;28;20046;-72
2021/01/24 01:45:35;;;;;;;34.72;21.73;;;;;;;-0.93;90.37;98238.06;5097039;22;20127;-73
2021/01/24 01:48:01;;;;;;;39.78;22.05;;;;;;;-0.94;90.58;98223.88;5071590;28;20079;-76
2021/01/24 01:50:28;;;;;;;36.00;21.40;;;;;;;-1.00;90.47;98221.97;5051966;28;20052;-76
2021/01/24 01:52:58;;;;;;;35.38;22.05;;;;;;;-1.14;90.22;98223.72;5055023;28;20110;-76
2021/01/24 01:55:25;;;;;;;36.22;22.23;;;;;;;-1.20;90.88;98211.09;5032981;28;20135;-76
2021/01/24 01:57:51;;;;;;;37.92;22.30;;;;;;;-1.10;90.52;98216.13;5038242;28;20052;-76
2021/01/24 02:00:18;;;;;;;39.15;22.92;;;;;;;-1.11;90.66;98211.81;5046335;28;20061;-76
2021/01/24 02:02:57;;;;;;;40.65;23.08;;;;;;;-1.15;90.67;98216.72;5044191;28;20072;-76
2021/01/24 02:05:32;;;;;;;39.00;23.45;;;;;;;-1.31;91.26;98221.47;5019729;28;20047;-76
2021/01/24 02:08:13;;;;;;;40.05;23.27;;;;;;;-1.12;91.20;98208.31;5043576;28;20048;-75
2021/01/24 02:10:51;;;;;;;36.85;20.85;;;;;;;-1.09;90.59;98207.09;5031407;28;20451;-76
2021/01/24 02:13:40;;;;;;;38.00;22.85;;;;;;;-1.08;90.46;98203.41;5036504;28;20053;-77
2021/01/24 02:16:09;;;;;;;41.15;24.20;;;;;;;-1.06;90.62;98206.72;5044127;28;20045;-76
2021/01/24 02:18:36;;;;;;;38.17;22.95;;;;;;;-1.05;90.64;98203.03;5051360;28;20036;-76
2021/01/24 02:21:12;;;;;;;38.83;22.65;;;;;;;-0.97;90.03;98197.53;5047105;28;20043;-76
2021/01/24 02:23:40;;;;;;;37.17;21.98;;;;;;;-1.05;90.32;98197.69;5035027;28;20040;-76
2021/01/24 02:26:16;;;;;;;40.55;23.27;;;;;;;-1.09;89.91;98191.91;5025712;28;20123;-76
2021/01/24 02:29:01;;;;;;;40.70;23.67;;;;;;;-1.18;90.60;98189.53;5020004;28;20524;-75
2021/01/24 02:31:28;;;;;;;42.67;24.73;;;;;;;-1.26;91.22;98195.84;5022620;28;20128;-76
2021/01/24 02:33:57;;;;;;;44.45;24.60;;;;;;;-1.11;91.04;98188.59;5016947;28;20560;-76
2021/01/24 02:36:24;;;;;;;40.15;23.23;;;;;;;-1.05;90.62;98184.31;5049125;28;20080;-75
2021/01/24 02:38:50;;;;;;;39.58;22.90;;;;;;;-0.90;90.00;98185.06;5022386;28;20047;-75
2021/01/24 02:41:17;;;;;;;37.90;22.58;;;;;;;-0.79;89.62;98192.56;5023728;28;20136;-76
2021/01/24 02:43:45;;;;;;;35.35;21.85;;;;;;;-0.67;89.00;98190.16;5045526;28;20052;-75
2021/01/24 02:46:12;;;;;;;39.28;21.70;;;;;;;-0.79;89.14;98181.88;5050326;28;20139;-76
2021/01/24 02:48:51;;;;;;;35.60;21.58;;;;;;;-0.56;88.90;98178.94;5052867;28;20071;-75
2021/01/24 02:51:18;;;;;;;32.00;20.02;;;;;;;-0.52;88.18;98168.66;5021509;28;20131;-76
2021/01/24 02:53:48;;;;;;;33.03;19.90;;;;;;;-0.53;87.92;98169.69;5024278;28;20511;-76
2021/01/24 02:56:21;;;;;;;30.55;19.35;;;;;;;-0.53;87.45;98169.69;5032101;28;20479;-76
2021/01/24 02:58:49;;;;;;;32.28;19.90;;;;;;;-0.48;87.76;98173.44;5050044;28;20127;-75
2021/01/24 03:01:15;;;;;;;33.83;19.90;;;;;;;-0.61;87.25;98159.13;5051130;28;20049;-75
2021/01/24 03:03:46;;;;;;;31.85;19.95;;;;;;;-0.67;87.87;98158.91;5039199;28;20094;-76
2021/01/24 03:06:12;;;;;;;35.47;20.33;;;;;;;-0.63;88.08;98158.50;5030025;28;20070;-75
2021/01/24 03:08:39;;;;;;;31.98;19.40;;;;;;;-0.64;87.17;98168.38;5048795;28;20040;-76
2021/01/24 03:11:08;;;;;;;34.15;21.35;;;;;;;-0.67;87.95;98158.91;5031378;28;20049;-76
2021/01/24 03:13:51;;;;;;;34.72;20.88;;;;;;;-0.89;88.44;98161.81;5003948;28;20483;-75
2021/01/24 03:16:18;;;;;;;36.45;20.65;;;;;;;-0.79;88.35;98168.50;5011433;28;20036;-76
2021/01/24 03:18:45;;;;;;;37.50;21.50;;;;;;;-0.98;88.69;98174.50;5046039;28;20528;-75
2021/01/24 03:21:13;;;;;;;36.88;21.10;;;;;;;-0.94;88.30;98169.59;5033390;28;20057;-76
2021/01/24 03:23:40;;;;;;;34.72;20.40;;;;;;;-1.05;88.35;98171.78;5040797;28;20045;-75
2021/01/24 03:26:07;;;;;;;35.80;20.48;;;;;;;-0.98;88.41;98157.63;5029596;28;20055;-76
2021/01/24 03:28:37;;;;;;;40.38;21.23;;;;;;;-1.07;88.67;98151.63;5008427;28;20049;-76
2021/01/24 03:31:06;;;;;;;36.58;21.60;;;;;;;-1.18;89.04;98160.16;5009134;28;20040;-75
2021/01/24 03:33:36;;;;;;;37.37;21.07;;;;;;;-1.09;88.96;98143.78;5050421;28;20510;-76
2021/01/24 03:36:04;;;;;;;38.22;21.52;;;;;;;-1.11;89.30;98148.50;5051314;28;20060;-75
2021/01/24 03:38:30;;;;;;;36.97;21.50;;;;;;;-1.13;89.01;98134.50;5052009;28;20044;-75
2021/01/24 03:40:57;;;;;;;39.08;22.42;;;;;;;-1.08;89.43;98133.94;5036229;28;20128;-75
2021/01/24 03:43:23;;;;;;;36.75;20.33;;;;;;;-1.15;89.16;98138.38;5052946;28;20062;-76
2021/01/24 03:45:49;;;;;;;36.28;20.30;;;;;;;-1.10;88.99;98131.44;5052490;28;20036;-75
2021/01/24 03:48:15;;;;;;;36.22;20.05;;;;;;;-1.10;89.63;98136.78;5069231;28;20071;-75
2021/01/24 03:50:42;;;;;;;38.88;21.27;;;;;;;-1.16;89.81;98137.56;5052589;28;20083;-75
2021/01/24 03:53:08;;;;;;;32.40;18.55;;;;;;;-1.17;89.67;98132.41;5069716;28;20052;-75
2021/01/24 03:55:34;;;;;;;37.28;19.15;;;;;;;-1.10;89.37;98127.94;5052852;28;20105;-75
2021/01/24 03:58:01;;;;;;;38.55;20.52;;;;;;;-0.93;89.01;98133.81;5052880;28;20051;-75
2021/01/24 04:00:27;;;;;;;31.33;17.90;;;;;;;-0.82;88.43;98122.59;5035899;28;20067;-75
2021/01/24 04:02:53;;;;;;;31.42;17.85;;;;;;;-0.94;88.94;98119.63;5028180;28;20071;-75
2021/01/24 04:05:20;;;;;;;36.53;19.75;;;;;;;-1.13;89.47;98121.16;5036482;28;20071;-75
2021/01/24 04:07:46;;;;;;;32.42;18.00;;;;;;;-0.87;88.32;98115.16;5003838;28;20054;-75
2021/01/24 04:10:13;;;;;;;32.13;17.63;;;;;;;-0.78;88.57;98108.66;5011657;28;20073;-75
2021/01/24 04:12:40;;;;;;;30.23;17.40;;;;;;;-0.73;88.21;98116.91;5030250;28;20053;-75
2021/01/24 04:15:07;;;;;;;32.47;17.92;;;;;;;-0.70;87.63;98121.88;4983188;28;20045;-76
2021/01/24 04:17:34;;;;;;;32.83;17.98;;;;;;;-0.59;87.04;98116.97;5002056;28;20060;-75
2021/01/24 04:20:00;;;;;;;28.88;15.85;;;;;;;-0.60;87.42;98118.00;5055137;28;20051;-76
2021/01/24 04:22:27;;;;;;;30.40;16.15;;;;;;;-0.60;87.00;98113.47;5044668;28;20049;-76
2021/01/24 04:24:53;;;;;;;27.83;15.52;;;;;;;-0.65;86.82;98115.91;5046338;28;20079;-75
2021/01/24 04:27:19;;;;;;;27.17;15.20;;;;;;;-0.64;86.99;98114.06;5074103;28;20060;-75
2021/01/24 04:29:45;;;;;;;26.92;15.00;;;;;;;-0.62;86.52;98107.50;5073973;28;20740;-76
2021/01/24 04:32:12;;;;;;;28.00;15.75;;;;;;;-0.54;86.62;98107.34;5073975;28;20243;-76
2021/01/24 04:34:38;;;;;;;28.48;15.13;;;;;;;-0.68;86.55;98108.28;5037253;28;20055;-75
2021/01/24 04:37:05;;;;;;;26.80;14.90;;;;;;;-0.67;87.01;98101.91;5044506;28;20076;-76
2021/01/24 04:39:31;;;;;;;27.30;15.48;;;;;;;-0.63;86.98;98099.66;5058599;28;20048;-75
2021/01/24 04:41:57;;;;;;;28.35;15.30;;;;;;;-0.74;87.32;98104.56;5056035;28;20076;-75
2021/01/24 04:44:24;;;;;;;28.42;15.35;;;;;;;-0.70;87.30;98105.84;5043586;28;20049;-75
2021/01/24 04:46:50;;;;;;;26.45;14.60;;;;;;;-0.67;86.89;98101.91;5054529;28;20051;-75
2021/01/24 04:49:17;;;;;;;27.45;14.43;;;;;;;-0.75;87.10;98100.25;5056127;28;20059;-75
2021/01/24 04:51:43;;;;;;;28.77;15.38;;;;;;;-0.79;87.96;98096.31;5023017;28;20559;-75
2021/01/24 04:54:11;;;;;;;28.98;15.13;;;;;;;-0.68;87.34;98097.59;5039567;28;20071;-76
2021/01/24 04:56:38;;;;;;;26.60;14.60;;;;;;;-0.55;87.13;98094.16;5046106;28;20049;-75
2021/01/24 04:59:05;;;;;;;24.65;13.93;;;;;;;-0.50;86.32;98089.88;5022772;28;20479;-75
2021/01/24 05:01:32;;;;;;;27.83;14.70;;;;;;;-0.64;87.26;98095.34;5054942;28;20044;-76
2021/01/24 05:03:59;;;;;;;26.27;13.70;;;;;;;-0.50;86.81;98087.22;5037659;28;20045;-75
2021/01/24 05:06:27;;;;;;;22.00;12.30;;;;;;;-0.30;86.46;98081.94;5056008;28;20040;-75
2021/01/24 05:08:58;;;;;;;25.00;13.68;;;;;;;-0.58;87.06;98098.06;5022882;28;20086;-76
2021/01/24 05:11:24;;;;;;;28.58;14.57;;;;;;;-0.57;87.38;98094.38;5073375;28;20069;-75
2021/01/24 05:13:51;;;;;;;27.55;14.77;;;;;;;-0.52;87.36;98091.09;5039020;28;20131;-76
2021/01/24 05:16:20;;;;;;;27.70;14.93;;;;;;;-0.36;87.30;98093.47;5038724;28;20048;-76
2021/01/24 05:18:56;;;;;;;26.67;13.77;;;;;;;-0.52;87.18;98096.44;5055370;28;20522;-76
2021/01/24 05:21:26;;;;;;;27.55;14.07;;;;;;;-0.25;85.96;98100.06;5055449;28;20122;-76
2021/01/24 05:23:54;;;;;;;26.85;14.82;;;;;;;-0.30;86.43;98092.63;5055580;28;20056;-75
2021/01/24 05:26:20;;;;;;;27.27;13.80;;;;;;;-0.21;85.38;98094.13;5038738;28;20044;-76
2021/01/24 05:28:47;;;;;;;27.60;14.70;;;;;;;-0.09;84.96;98089.84;5038733;28;20372;-75
2021/01/24 05:31:14;;;;;;;24.27;13.70;;;;;;;-0.25;85.73;98090.19;5022194;28;20052;-75
2021/01/24 05:33:45;;;;;;;26.20;13.68;;;;;;;-0.07;85.10;98095.00;5038775;28;20048;-76
2021/01/24 05:36:11;;;;;;;26.05;12.85;;;;;;;-0.22;85.45;98099.69;5055051;28;20053;-75
2021/01/24 05:38:38;;;;;;;26.48;14.52;;;;;;;-0.24;86.01;98097.19;5048339;28;20049;-75
2021/01/24 05:41:06;;;;;;;26.63;13.18;;;;;;;-0.22;86.78;98103.19;5031918;28;20052;-75
2021/01/24 05:43:43;;;;;;;27.73;14.23;;;;;;;-0.17;85.54;98100.72;5055011;28;20049;-75
2021/01/24 05:46:10;;;;;;;23.02;11.73;;;;;;;-0.21;85.93;98099.47;5048552;28;20045;-76
2021/01/24 05:48:45;;;;;;;25.42;13.52;;;;;;;-0.27;86.25;98100.28;5021096;28;20049;-75
2021/01/24 05:51:14;;;;;;;27.13;14.60;;;;;;;-0.19;85.72;98107.31;5006935;28;20205;-75
2021/01/24 05:53:43;;;;;;;25.65;13.85;;;;;;;-0.13;85.97;98102.00;5054567;28;20071;-75
2021/01/24 05:56:11;;;;;;;31.20;15.70;;;;;;;-0.23;85.97;98098.84;5052914;28;20061;-75
2021/01/24 05:58:39;;;;;;;25.40;13.90;;;;;;;-0.16;86.40;98097.03;5052551;28;20123;-75
2021/01/24 06:01:07;;;;;;;27.70;15.35;;;;;;;-0.28;86.62;98103.97;5053055;28;20048;-75
2021/01/24 06:03:35;;;;;;;29.73;15.40;;;;;;;-0.13;86.23;98101.16;5028445;28;20083;-75
2021/01/24 06:06:01;;;;;;;32.28;15.68;;;;;;;-0.14;85.93;98100.34;5035299;28;20445;-75
2021/01/24 06:08:29;;;;;;;28.60;15.10;;;;;;;-0.17;86.07;98095.38;5052787;28;20634;-75
2021/01/24 06:10:58;;;;;;;25.58;14.02;;;;;;;-0.19;86.19;98108.13;5054336;28;20048;-75
2021/01/24 06:13:26;;;;;;;27.85;14.98;;;;;;;-0.13;86.83;98107.34;5038027;28;20056;-75
2021/01/24 06:15:53;;;;;;;34.13;15.10;;;;;;;-0.13;86.36;98112.69;5071970;28;20049;-75
2021/01/24 06:18:31;;;;;;;30.27;15.45;;;;;;;-0.13;86.44;98102.00;5054169;28;20080;-75
2021/01/24 06:21:00;;;;;;;30.80;16.58;;;;;;;-0.17;87.24;98106.09;5054419;28;20128;-75
2021/01/24 06:23:31;;;;;;;30.38;16.00;;;;;;;-0.04;87.00;98102.66;5054260;28;20058;-76
2021/01/24 06:26:06;;;;;;;30.20;15.52;;;;;;;-0.07;87.51;98090.50;5054319;28;20090;-76
2021/01/24 06:28:36;;;;;;;30.38;15.23;;;;;;;-0.08;87.57;98093.38;5054034;28;20089;-75
2021/01/24 06:31:04;;;;;;;31.67;15.77;;;;;;;-0.12;87.75;98103.63;5037481;28;20051;-75
2021/01/24 06:33:30;;;;;;;32.22;16.15;;;;;;;-0.10;87.41;98095.41;5053992;28;20040;-75
2021/01/24 06:35:59;;;;;;;31.17;16.33;;;;;;;-0.02;87.10;98101.41;5054347;28;20063;-75
2021/01/24 06:38:33;;;;;;;33.15;16.48;;;;;;;-0.09;88.17;98094.38;5037414;28;20499;-75
2021/01/24 06:41:05;;;;;;;30.98;16.85;;;;;;;0.02;87.90;98095.63;5071405;28;20522;-75
2021/01/24 06:43:42;;;;;;;31.13;16.48;;;;;;;0.08;87.65;98097.50;5053272;28;20586;-75
2021/01/24 06:46:28;;;;;;;29.42;16.58;;;;;;;0.10;87.78;98100.81;5036369;28;20525;-75
2021/01/24 06:48:55;;;;;;;32.90;15.95;;;;;;;0.18;86.77;98087.25;5037432;28;20055;-75
2021/01/24 06:51:41;;;;;;;33.28;17.35;;;;;;;0.05;87.90;98097.91;5035006;28;20060;-75
2021/01/24 06:54:27;;;;;;;30.23;15.95;;;;;;;0.11;87.12;98097.13;5042996;28;20052;-75
2021/01/24 06:57:06;;;;;;;29.77;15.15;;;;;;;0.13;86.86;98093.22;5039583;28;20082;-75
2021/01/24 06:59:32;;;;;;;31.75;16.58;;;;;;;0.10;86.68;98092.78;5027818;28;20045;-75
2021/01/24 07:02:17;;;;;;;30.90;16.13;;;;;;;0.21;86.23;98098.38;5034516;28;20067;-75
2021/01/24 07:05:07;;;;;;;34.42;17.77;;;;;;;0.27;86.89;98099.44;5064638;28;20048;-76
2021/01/24 07:07:34;;;;;;;;;;;;;;;0.19;87.90;98099.63;5053901;28;20048;-75
2021/01/24 07:10:01;;;;;;;30.17;16.50;;;;;;;0.20;88.62;98101.28;5036863;28;19954;-75
2021/01/24 07:12:42;;;;;;;33.22;17.77;;;;;;;0.33;87.25;98106.66;5071114;28;20064;-75
2021/01/24 07:15:20;;;;;;;31.30;17.20;;;;;;;0.38;88.19;98106.84;5053530;28;20470;-75
2021/01/24 07:18:00;;;;;;;33.70;17.43;;;;;;;0.26;87.62;98095.94;5053614;28;20120;-75
2021/01/24 07:20:27;;;;;;;33.50;17.02;;;;;;;0.35;86.94;98101.13;5053939;28;20068;-75
2021/01/24 07:22:54;;;;;;;32.60;17.70;;;;;;;0.20;87.54;98091.38;5053265;28;20071;-75
2021/01/24 07:25:21;;;;;;;34.22;18.17;;;;;;;0.32;87.48;98102.34;5053011;28;20060;-75
2021/01/24 07:27:51;;;;;;;33.17;16.95;;;;;;;0.43;87.65;98103.56;5052988;28;20515;-75
2021/01/24 07:30:22;;;;;;;39.35;19.83;;;;;;;0.33;87.96;98106.66;5020220;28;20417;-75
2021/01/24 07:32:48;;;;;;;32.22;17.30;;;;;;;0.34;87.89;98108.31;5036227;28;20131;-75
2021/01/24 07:35:15;;;;;;;37.78;19.75;;;;;;;0.30;88.23;98107.91;5036426;28;20051;-75
2021/01/24 07:37:42;;;;;;;37.20;19.35;;;;;;;0.26;88.32;98108.50;5036321;28;20051;-76
2021/01/24 07:40:08;;;;;;;35.72;17.73;;;;;;;0.20;87.62;98103.94;5019813;28;20048;-75
2021/01/24 07:42:35;;;;;;;30.88;14.70;;;;;;;0.20;88.39;98111.97;5036522;28;20072;-75
2021/01/24 07:45:02;;;;;;;33.00;16.08;;;;;;;0.16;88.11;98106.19;5020001;28;20094;-75
2021/01/24 07:47:41;;;;;;;35.42;18.15;;;;;;;0.25;88.75;98117.56;5064363;27;20357;-74
2021/01/24 07:50:08;;;;;;;32.72;16.50;;;;;;;0.17;87.29;98120.41;5064557;28;20117;-74
2021/01/24 07:52:35;;;;;;;34.67;18.95;;;;;;;0.18;88.96;98114.84;5046456;28;20057;-74
2021/01/24 07:55:01;;;;;;;34.97;18.33;;;;;;;0.21;89.16;98119.00;5063138;28;20053;-74
2021/01/24 07:57:29;;;;;;;35.67;17.88;;;;;;;0.17;89.14;98126.59;5063051;28;20040;-74
2021/01/24 07:59:55;;;;;;;35.42;19.00;;;;;;;0.13;88.83;98121.84;5046474;28;20060;-74
2021/01/24 08:02:21;;;;;;;37.28;16.83;;;;;;;0.11;89.73;98118.53;5063061;28;20049;-74
2021/01/24 08:04:48;;;;;;;35.83;18.23;;;;;;;0.13;89.80;98122.66;5040858;28;20045;-74
2021/01/24 08:07:14;;;;;;;35.28;16.98;;;;;;;0.04;89.80;98129.22;5062441;28;20147;-74
2021/01/24 08:09:41;;;;;;;34.13;17.45;;;;;;;0.07;90.72;98119.97;5030230;28;20060;-74
2021/01/24 08:12:10;;;;;;;37.05;17.88;;;;;;;0.11;92.19;98126.56;5062748;28;20048;-75
2021/01/24 08:14:38;;;;;;;39.47;19.70;;;;;;;0.06;92.56;98124.50;5046518;28;20068;-74
2021/01/24 08:17:06;;;;;;;42.95;18.70;;;;;;;0.06;92.80;98126.34;5029863;28;20265;-74
2021/01/24 08:19:33;;;;;;;34.90;17.90;;;;;;;0.13;92.76;98127.19;5038410;28;20477;-74
2021/01/24 08:21:59;;;;;;;38.80;17.55;;;;;;;0.05;92.04;98125.50;5028688;28;20406;-75
2021/01/24 08:24:26;;;;;;;38.90;18.27;;;;;;;0.07;92.12;98122.63;5052462;28;20045;-74
2021/01/24 08:26:52;;;;;;;40.92;19.60;;;;;;;0.13;92.03;98127.19;5063645;28;20055;-74
2021/01/24 08:29:18;;;;;;;37.55;17.58;;;;;;;1.31;89.67;98116.59;5062931;28;20413;-75
2021/01/24 08:31:45;;;;;;;35.80;17.55;;;;;;;0.18;90.77;98124.75;5062620;28;20422;-74
2021/01/24 08:34:14;;;;;;;37.97;18.80;;;;;;;0.27;91.10;98115.50;5063699;28;20101;-74
2021/01/24 08:36:40;;;;;;;37.85;18.90;;;;;;;0.35;92.39;98123.34;5041025;28;20120;-74
2021/01/24 08:39:07;;;;;;;37.08;18.42;;;;;;;0.27;93.45;98120.88;5053822;28;20057;-74
2021/01/24 08:41:35;;;;;;;38.22;19.02;;;;;;;0.25;95.23;98120.25;5062341;28;20132;-74
2021/01/24 08:44:04;;;;;;;37.13;17.75;;;;;;;0.28;94.79;98125.19;5029684;28;20053;-75
2021/01/24 08:46:36;;;;;;;43.40;19.93;;;;;;;0.21;95.54;98130.53;5045417;28;20132;-74
2021/01/24 08:49:08;;;;;;;40.67;20.35;;;;;;;0.04;95.91;98128.38;5046401;28;20059;-74
2021/01/24 08:51:45;;;;;;;42.80;19.45;;;;;;;-0.02;95.78;98124.69;5062318;28;20056;-75
2021/01/24 08:54:19;;;;;;;39.60;20.08;;;;;;;0.02;95.13;98135.78;5076846;28;20043;-73
2021/01/24 08:56:45;;;;;;;42.63;20.23;;;;;;;0.07;95.54;98128.00;5057011;28;20047;-74
2021/01/24 08:59:24;;;;;;;37.40;19.00;;;;;;;0.03;95.26;98126.75;5049362;28;20055;-73
2021/01/24 09:01:53;;;;;;;41.47;20.08;;;;;;;0.04;94.85;98128.38;5032731;28;20132;-74
2021/01/24 09:04:33;;;;;;;40.13;18.13;;;;;;;0.04;94.56;98129.22;5027074;28;20417;-74
2021/01/24 09:07:03;;;;;;;34.30;17.23;;;;;;;0.06;94.52;98126.34;5032124;28;20128;-73
2021/01/24 09:09:30;;;;;;;39.28;18.85;;;;;;;0.19;94.33;98121.03;5032254;28;20143;-75
2021/01/24 09:11:57;;;;;;;33.05;16.27;;;;;;;0.13;93.77;98137.91;5015832;28;20051;-74
2021/01/24 09:14:25;;;;;;;41.53;18.75;;;;;;;0.07;94.33;98136.03;5032284;28;20132;-74
2021/01/24 09:16:58;;;;;;;42.00;19.13;;;;;;;0.04;94.86;98133.75;5048434;28;20049;-74
2021/01/24 09:19:25;;;;;;;41.78;20.30;;;;;;;0.03;95.02;98132.91;5049817;28;20060;-74
2021/01/24 09:21:51;;;;;;;43.17;20.25;;;;;;;0.11;95.55;98129.25;5048389;28;20082;-74
2021/01/24 09:24:18;;;;;;;45.40;19.50;;;;;;;0.07;96.18;98128.00;5032106;28;20080;-74
2021/01/24 09:26:45;;;;;;;38.83;19.08;;;;;;;0.20;96.29;98128.06;5015279;28;20120;-74
2021/01/24 09:29:13;;;;;;;40.22;19.23;;;;;;;0.36;96.80;98122.31;5032085;28;20040;-75
2021/01/24 09:31:39;;;;;;;36.17;17.80;;;;;;;0.06;96.66;98127.16;5047974;28;20048;-75
2021/01/24 09:34:06;;;;;;;37.63;18.58;;;;;;;0.25;97.79;98130.94;5030248;28;20049;-75
2021/01/24 09:36:32;;;;;;;38.53;19.13;;;;;;;0.25;98.91;98125.59;5009579;28;20046;-75
2021/01/24 09:38:59;;;;;;;35.47;17.70;;;;;;;0.27;98.63;98139.63;5033558;28;20504;-74
2021/01/24 09:41:26;;;;;;;36.92;18.48;;;;;;;0.18;98.40;98130.09;5042621;28;20105;-75
2021/01/24 09:43:52;;;;;;;40.33;19.17;;;;;;;0.22;97.93;98132.19;5037708;28;20431;-74
2021/01/24 09:46:18;;;;;;;34.67;16.05;;;;;;;0.40;97.39;98131.59;5030866;28;20128;-75
2021/01/24 09:48:45;;;;;;;39.45;18.15;;;;;;;0.52;98.06;98126.47;5034399;28;20049;-75
2021/01/24 09:51:11;;;;;;;31.77;16.13;;;;;;;0.62;97.67;98130.41;5047734;28;20516;-74
2021/01/24 09:53:37;;;;;;;33.42;16.60;;;;;;;0.53;98.58;98123.59;5031888;28;20075;-74
2021/01/24 09:56:05;;;;;;;39.58;17.95;;;;;;;0.35;99.54;98120.66;5048006;28;20053;-75
2021/01/24 09:58:32;;;;;;;27.10;12.90;;;;;;;0.48;99.46;98131.41;5047635;28;20059;-74
2021/01/24 10:00:59;;;;;;;31.50;14.93;;;;;;;0.32;99.57;98126.44;5002824;28;20050;-74
2021/01/24 10:03:26;;;;;;;28.95;14.15;;;;;;;0.34;100.00;98129.75;5015053;28;20045;-75
2021/01/24 10:05:52;;;;;;;36.13;16.38;;;;;;;0.33;99.98;98122.75;5047541;28;20128;-74
2021/01/24 10:08:18;;;;;;;35.25;16.20;;;;;;;0.34;100.00;98124.41;5014996;28;20049;-74
2021/01/24 10:10:48;;;;;;;38.90;16.58;;;;;;;0.39;100.00;98121.91;5030074;28;20132;-76
2021/01/24 10:13:14;;;;;;;29.00;14.30;;;;;;;0.41;100.00;98127.06;5047703;28;20051;-75
2021/01/24 10:15:41;;;;;;;33.30;16.60;;;;;;;0.38;99.38;98117.56;5030869;28;20053;-75
2021/01/24 10:18:07;;;;;;;32.08;14.50;;;;;;;0.45;99.33;98131.81;5047439;28;20053;-75
2021/01/24 10:20:34;;;;;;;34.30;15.90;;;;;;;0.50;99.56;98131.22;5030986;28;20061;-75
2021/01/24 10:23:00;;;;;;;31.42;15.82;;;;;;;0.49;99.27;98130.38;5047672;28;20041;-75
2021/01/24 10:25:27;;;;;;;36.15;15.73;;;;;;;0.57;98.83;98127.53;5048472;28;20075;-76
2021/01/24 10:27:53;;;;;;;31.30;16.02;;;;;;;0.72;98.94;98131.84;4998093;28;20486;-76
2021/01/24 10:30:20;;;;;;;38.80;15.15;;;;;;;0.65;98.85;98124.66;5030828;28;20050;-75
2021/01/24 10:32:46;;;;;;;35.25;17.02;;;;;;;0.66;99.21;98128.16;4996761;28;20053;-75
2021/01/24 10:35:13;;;;;;;32.47;15.40;;;;;;;1.60;99.47;98125.19;5028425;28;20045;-75
2021/01/24 10:37:40;;;;;;;36.75;16.83;;;;;;;1.82;97.64;98131.94;5026776;28;20051;-75
2021/01/24 10:40:07;;;;;;;36.05;16.70;;;;;;;1.84;96.63;98126.38;5010214;28;20076;-75
2021/01/24 10:42:33;;;;;;;34.45;17.13;;;;;;;1.18;96.35;98134.56;5030967;28;20081;-74
2021/01/24 10:44:59;;;;;;;32.58;16.23;;;;;;;1.42;96.60;98133.06;5031725;28;20083;-75
2021/01/24 10:47:26;;;;;;;31.75;16.40;;;;;;;1.41;96.27;98139.47;5017090;28;20093;-75
2021/01/24 10:49:52;;;;;;;31.92;16.17;;;;;;;1.03;97.13;98140.16;5018886;28;20053;-75
2021/01/24 10:52:21;;;;;;;30.90;15.60;;;;;;;1.11;97.65;98133.72;5026948;28;20076;-74
2021/01/24 10:54:48;;;;;;;32.25;15.93;;;;;;;1.40;97.05;98140.50;5046315;28;20127;-75
2021/01/24 10:57:14;;;;;;;32.47;15.50;;;;;;;1.55;96.61;98133.06;5044512;28;20576;-75
2021/01/24 10:59:41;;;;;;;37.38;16.33;;;;;;;1.44;96.25;98131.81;5026537;28;20053;-75
2021/01/24 11:02:07;;;;;;;30.85;15.68;;;;;;;1.47;95.65;98135.97;5034335;28;20061;-74
2021/01/24 11:04:33;;;;;;;31.73;15.70;;;;;;;1.81;95.86;98132.97;5011419;28;20131;-75
2021/01/24 11:07:00;;;;;;;36.25;17.23;;;;;;;2.27;94.51;98140.03;5011637;28;20049;-75
2021/01/24 11:09:27;;;;;;;31.33;16.27;;;;;;;1.81;95.27;98137.53;5031773;28;20465;-75
2021/01/24 11:11:53;;;;;;;33.25;16.77;;;;;;;1.86;95.89;98130.50;5048966;28;20502;-74
2021/01/24 11:14:19;;;;;;;33.72;15.88;;;;;;;1.73;95.72;98133.22;4998322;28;20051;-74
2021/01/24 11:16:46;;;;;;;34.42;16.23;;;;;;;1.73;95.65;98130.56;5047235;28;20753;-75
2021/01/24 11:19:13;;;;;;;34.15;16.42;;;;;;;1.96;94.77;98125.50;5029443;28;20055;-75
2021/01/24 11:21:39;;;;;;;27.95;15.68;;;;;;;1.46;95.18;98134.31;5002222;28;20140;-75
2021/01/24 11:24:06;;;;;;;34.15;16.23;;;;;;;1.98;95.29;98130.66;5013993;28;20137;-74
2021/01/24 11:26:32;;;;;;;36.47;18.33;;;;;;;1.50;96.34;98130.16;5030525;28;20120;-75